Time;durP1;ratioP1;P1;durP2;ratioP2;P2;SDS_P1;SDS_P2;PMS_P1;PMS_P2;Temp;Humidity;BMP_temperature;BMP_pressure;BME280_temperature;BME280_humidity;BME280_pressure;Samples;Min_cycle;Max_cycle;Signal;HPM_P1;HPM_P2
2021/06/06 00:01:35;;;;;;;7.95;4.72;;;;;;;;;;5109182;28;20024;-68
2021/06/06 00:07:22;;;;;;;7.90;4.50;;;;;;;;;;5126279;27;20400;-68
2021/06/06 00:09:49;;;;;;;9.15;5.43;;;;;;;;;;5110030;28;20032;-69
2021/06/06 00:12:15;;;;;;;10.68;4.50;;;;;;;;;;5110298;28;20472;-69
2021/06/06 00:14:41;;;;;;;9.50;4.43;;;;;;;;;;5110368;28;20032;-69
2021/06/06 00:20:49;;;;;;;6.72;4.55;;;;;;;;;;5126481;27;20369;-68
2021/06/06 00:23:15;;;;;;;6.50;4.70;;;;;;;;;;5110061;28;20036;-68
2021/06/06 00:25:42;;;;;;;7.47;4.07;;;;;;;;;;5110414;28;20020;-68
2021/06/06 00:28:08;;;;;;;9.10;4.40;;;;;;;;;;5110431;28;20043;-68
2021/06/06 00:30:36;;;;;;;8.32;3.88;;;;;;;;;;5108593;28;20107;-68
2021/06/06 00:35:11;;;;;;;7.10;4.30;;;;;;;;;;5126293;27;20426;-69
2021/06/06 00:42:22;;;;;;;6.88;4.22;;;;;;;;;;5126268;27;20365;-68
2021/06/06 00:44:48;;;;;;;7.30;4.60;;;;;;;;;;5110049;28;20093;-68
2021/06/06 00:47:15;;;;;;;5.82;4.22;;;;;;;;;;5109047;28;20055;-68
2021/06/06 00:49:41;;;;;;;6.07;3.65;;;;;;;;;;5110409;28;20051;-68
2021/06/06 00:54:13;;;;;;;6.53;4.35;;;;;;;;;;5126235;27;20385;-69
2021/06/06 00:56:40;;;;;;;6.75;4.68;;;;;;;;;;5110693;28;20106;-68
2021/06/06 00:59:07;;;;;;;11.43;4.82;;;;;;;;;;5110072;28;20024;-68
2021/06/06 01:01:33;;;;;;;9.65;5.60;;;;;;;;;;5110280;28;20028;-68
2021/06/06 01:07:52;;;;;;;8.00;5.03;;;;;;;;;;5126313;27;20381;-68
2021/06/06 01:10:19;;;;;;;7.35;4.70;;;;;;;;;;5109095;28;20111;-68
2021/06/06 01:15:19;;;;;;;8.18;5.03;;;;;;;;;;5125318;27;20438;-68
2021/06/06 01:17:51;;;;;;;7.45;5.22;;;;;;;;;;5107655;28;20474;-68
2021/06/06 01:22:43;;;;;;;6.93;4.25;;;;;;;;;;5126344;27;20377;-68
2021/06/06 01:27:18;;;;;;;8.55;4.25;;;;;;;;;;5126014;27;20378;-68
2021/06/06 01:30:08;;;;;;;7.13;4.22;;;;;;;;;;5110510;28;20034;-68
2021/06/06 01:34:35;;;;;;;6.78;4.20;;;;;;;;;;5125934;27;20868;-68
2021/06/06 01:37:05;;;;;;;6.38;3.83;;;;;;;;;;5110654;28;20035;-68
2021/06/06 01:43:49;;;;;;;6.25;4.22;;;;;;;;;;5126287;27;20884;-68
2021/06/06 01:46:21;;;;;;;9.73;4.97;;;;;;;;;;5110506;28;20032;-68
2021/06/06 01:55:10;;;;;;;7.07;4.60;;;;;;;;;;5126041;27;20385;-68
2021/06/06 01:59:39;;;;;;;7.80;4.80;;;;;;;;;;5126468;27;20745;-68
2021/06/06 02:03:11;;;;;;;7.57;4.55;;;;;;;;;;5125950;27;20718;-68
2021/06/06 02:05:37;;;;;;;7.65;4.53;;;;;;;;;;5110432;28;20028;-68
2021/06/06 02:08:04;;;;;;;6.03;4.03;;;;;;;;;;5110332;28;20472;-68
2021/06/06 02:10:33;;;;;;;7.45;4.65;;;;;;;;;;5110147;28;20028;-68
2021/06/06 02:14:30;;;;;;;6.60;4.22;;;;;;;;;;5126141;27;20384;-68
2021/06/06 02:20:00;;;;;;;6.97;4.00;;;;;;;;;;5129785;27;20112;-68
2021/06/06 02:22:28;;;;;;;7.63;4.55;;;;;;;;;;5130599;28;20027;-68
2021/06/06 02:26:04;;;;;;;6.93;4.40;;;;;;;;;;5126393;27;20384;-68
2021/06/06 02:28:39;;;;;;;7.40;4.80;;;;;;;;;;5110469;28;20024;-68
2021/06/06 02:31:59;;;;;;;7.90;5.00;;;;;;;;;;5126336;27;20434;-69
2021/06/06 02:36:16;;;;;;;7.80;4.70;;;;;;;;;;5126239;27;20384;-68
2021/06/06 02:42:02;;;;;;;8.40;4.50;;;;;;;;;;5126405;27;20468;-68
2021/06/06 02:44:31;;;;;;;6.88;4.03;;;;;;;;;;5108214;28;20484;-68
2021/06/06 02:46:58;;;;;;;8.75;4.55;;;;;;;;;;5109130;28;20052;-69
2021/06/06 02:50:49;;;;;;;9.57;4.80;;;;;;;;;;5125985;27;20388;-68
2021/06/06 02:53:28;;;;;;;6.25;3.92;;;;;;;;;;5109166;28;20024;-68
2021/06/06 02:55:57;;;;;;;9.43;4.80;;;;;;;;;;5109255;28;20030;-68
2021/06/06 03:00:05;;;;;;;6.60;4.22;;;;;;;;;;5126416;27;20387;-68
2021/06/06 03:02:43;;;;;;;9.52;5.43;;;;;;;;;;5110457;28;20484;-68
2021/06/06 03:05:10;;;;;;;8.60;5.00;;;;;;;;;;5108652;28;20028;-68
2021/06/06 03:07:39;;;;;;;7.65;4.65;;;;;;;;;;5110366;28;20035;-68
2021/06/06 03:12:22;;;;;;;7.85;4.63;;;;;;;;;;5126256;27;20513;-68
2021/06/06 03:14:50;;;;;;;7.65;4.55;;;;;;;;;;5109073;28;20034;-68
2021/06/06 03:17:46;;;;;;;6.70;4.70;;;;;;;;;;5126436;27;20385;-68
2021/06/06 03:20:17;;;;;;;7.60;4.68;;;;;;;;;;5110180;28;20028;-68
2021/06/06 03:22:45;;;;;;;7.25;4.38;;;;;;;;;;5109098;28;20050;-68
2021/06/06 03:26:00;;;;;;;9.43;5.38;;;;;;;;;;5126033;27;20711;-68
2021/06/06 03:28:30;;;;;;;11.77;5.55;;;;;;;;;;5110469;28;20027;-69
2021/06/06 03:31:56;;;;;;;8.05;4.75;;;;;;;;;;5126408;27;20136;-68
2021/06/06 03:35:23;;;;;;;8.27;4.28;;;;;;;;;;5126259;27;20380;-69
2021/06/06 03:37:49;;;;;;;6.57;3.92;;;;;;;;;;5110682;28;20077;-69
2021/06/06 03:40:16;;;;;;;8.15;4.40;;;;;;;;;;5110120;28;20028;-69
2021/06/06 03:42:43;;;;;;;6.78;4.40;;;;;;;;;;5110396;28;20073;-69
2021/06/06 03:49:42;;;;;;;7.30;4.20;;;;;;;;;;5126343;27;20376;-69
2021/06/06 03:52:09;;;;;;;8.85;4.78;;;;;;;;;;5109155;28;20028;-68
2021/06/06 03:54:56;;;;;;;7.32;4.40;;;;;;;;;;5125986;27;20380;-69
2021/06/06 03:58:41;;;;;;;9.52;4.38;;;;;;;;;;5126562;27;20387;-68
2021/06/06 04:01:08;;;;;;;8.55;4.32;;;;;;;;;;5110136;28;20024;-68
2021/06/06 04:03:35;;;;;;;6.25;4.22;;;;;;;;;;5110446;28;20024;-68
2021/06/06 04:08:51;;;;;;;6.25;4.32;;;;;;;;;;5126027;27;20627;-68
2021/06/06 04:11:18;;;;;;;6.15;4.07;;;;;;;;;;5110444;28;20434;-69
2021/06/06 04:13:44;;;;;;;6.18;3.95;;;;;;;;;;5110387;28;20509;-68
2021/06/06 04:21:39;;;;;;;6.72;3.70;;;;;;;;;;5143974;27;20373;-69
2021/06/06 04:24:05;;;;;;;6.70;3.88;;;;;;;;;;5110019;28;20502;-69
2021/06/06 04:30:53;;;;;;;8.00;4.60;;;;;;;;;;5125899;27;20381;-68
2021/06/06 04:35:16;;;;;;;5.65;3.72;;;;;;;;;;5126302;27;20365;-69
2021/06/06 04:37:42;;;;;;;10.02;4.13;;;;;;;;;;5108902;28;20024;-68
2021/06/06 04:40:09;;;;;;;7.72;4.38;;;;;;;;;;5110641;28;20024;-68
2021/06/06 04:45:06;;;;;;;4.90;3.22;;;;;;;;;;5125919;27;20400;-68
2021/06/06 04:48:45;;;;;;;7.60;4.80;;;;;;;;;;5126280;27;20386;-68
2021/06/06 04:51:34;;;;;;;7.38;3.95;;;;;;;;;;5126011;27;20487;-69
2021/06/06 04:56:00;;;;;;;8.57;4.10;;;;;;;;;;5126519;27;20377;-69
2021/06/06 04:58:27;;;;;;;7.05;3.97;;;;;;;;;;5110249;28;20024;-69
2021/06/06 05:02:54;;;;;;;4.97;3.05;;;;;;;;;;5129716;27;20118;-68
2021/06/06 05:05:21;;;;;;;8.23;4.80;;;;;;;;;;5130521;28;20029;-70
2021/06/06 05:07:52;;;;;;;6.15;3.40;;;;;;;;;;5129638;28;20019;-70
2021/06/06 05:11:12;;;;;;;5.60;3.25;;;;;;;;;;5125874;27;20385;-68
2021/06/06 05:13:39;;;;;;;5.20;3.22;;;;;;;;;;5109194;28;20016;-68
2021/06/06 05:20:11;;;;;;;7.53;3.15;;;;;;;;;;5126230;27;20738;-68
2021/06/06 05:22:37;;;;;;;5.13;2.88;;;;;;;;;;5109097;28;20033;-68
2021/06/06 05:25:03;;;;;;;4.63;3.17;;;;;;;;;;5108644;28;20498;-68
2021/06/06 05:27:30;;;;;;;5.05;3.42;;;;;;;;;;5110424;28;20507;-68
2021/06/06 05:29:56;;;;;;;5.00;3.08;;;;;;;;;;5110361;28;20099;-69
2021/06/06 05:33:40;;;;;;;6.13;3.35;;;;;;;;;;5125977;27;20384;-68
2021/06/06 05:36:07;;;;;;;5.22;3.13;;;;;;;;;;5110633;28;20051;-69
2021/06/06 05:41:06;;;;;;;4.65;2.97;;;;;;;;;;5125951;27;20400;-68
2021/06/06 05:44:52;;;;;;;5.75;2.60;;;;;;;;;;5126343;27;20373;-68
2021/06/06 05:49:14;;;;;;;6.65;2.90;;;;;;;;;;5126310;27;20401;-68
2021/06/06 05:51:40;;;;;;;6.97;3.40;;;;;;;;;;5109149;28;20498;-68
2021/06/06 05:54:06;;;;;;;7.13;3.22;;;;;;;;;;5108684;28;20043;-68
2021/06/06 05:58:16;;;;;;;5.32;2.95;;;;;;;;;;5126546;27;20388;-69
2021/06/06 06:00:44;;;;;;;4.47;2.50;;;;;;;;;;5110065;28;20039;-69
2021/06/06 06:04:18;;;;;;;3.78;2.58;;;;;;;;;;5129883;27;20463;-68
2021/06/06 06:06:45;;;;;;;5.90;3.60;;;;;;;;;;5129651;28;20080;-68
2021/06/06 06:09:11;;;;;;;5.00;3.13;;;;;;;;;;5130436;28;20020;-69
2021/06/06 06:11:37;;;;;;;6.47;3.08;;;;;;;;;;5129494;28;20042;-68
2021/06/06 06:14:03;;;;;;;7.18;4.28;;;;;;;;;;5130738;28;20024;-68
2021/06/06 06:16:32;;;;;;;6.63;3.35;;;;;;;;;;5130485;28;20044;-68
2021/06/06 06:18:59;;;;;;;6.65;3.05;;;;;;;;;;5130911;27;20023;-68
2021/06/06 06:21:26;;;;;;;5.13;3.05;;;;;;;;;;5130324;28;20387;-68
2021/06/06 06:23:52;;;;;;;4.93;2.80;;;;;;;;;;5130529;28;20059;-68
2021/06/06 06:27:50;;;;;;;4.25;2.53;;;;;;;;;;5126209;27;20408;-69
2021/06/06 06:30:18;;;;;;;6.10;2.67;;;;;;;;;;5108658;28;20028;-68
2021/06/06 06:32:45;;;;;;;5.03;3.22;;;;;;;;;;5109085;28;20027;-68
2021/06/06 06:35:11;;;;;;;9.63;2.95;;;;;;;;;;5109228;28;20107;-68
2021/06/06 06:37:37;;;;;;;4.25;2.65;;;;;;;;;;5108646;28;20028;-68
2021/06/06 06:40:04;;;;;;;6.47;3.25;;;;;;;;;;5108953;28;20020;-68
2021/06/06 06:44:04;;;;;;;5.85;3.20;;;;;;;;;;5125787;27;20400;-69
2021/06/06 06:46:30;;;;;;;9.18;3.00;;;;;;;;;;5110477;28;20035;-69
2021/06/06 06:48:56;;;;;;;5.53;3.13;;;;;;;;;;5109137;28;20089;-69
2021/06/06 06:51:24;;;;;;;5.22;3.28;;;;;;;;;;5108781;28;20115;-70
2021/06/06 06:53:54;;;;;;;5.47;3.13;;;;;;;;;;5110418;28;20030;-70
2021/06/06 06:57:22;;;;;;;5.38;3.00;;;;;;;;;;5125914;27;20517;-69
2021/06/06 06:59:48;;;;;;;3.88;2.92;;;;;;;;;;5110383;28;20114;-69
2021/06/06 07:02:14;;;;;;;5.70;3.75;;;;;;;;;;5108897;28;20028;-69
2021/06/06 07:04:40;;;;;;;11.75;3.60;;;;;;;;;;5108500;28;20073;-70
2021/06/06 07:07:06;;;;;;;5.82;3.40;;;;;;;;;;5109028;28;20032;-69
2021/06/06 07:09:33;;;;;;;5.25;2.83;;;;;;;;;;5110240;28;20030;-69
2021/06/06 07:11:59;;;;;;;6.32;3.22;;;;;;;;;;5109921;28;20023;-69
2021/06/06 07:15:17;;;;;;;4.50;3.15;;;;;;;;;;5126381;27;20377;-69
2021/06/06 07:17:44;;;;;;;4.72;2.75;;;;;;;;;;5110127;28;20065;-69
2021/06/06 07:20:11;;;;;;;4.50;2.63;;;;;;;;;;5110393;28;20039;-70
2021/06/06 07:22:38;;;;;;;10.57;3.55;;;;;;;;;;5110051;28;20563;-69
2021/06/06 07:25:06;;;;;;;4.88;3.00;;;;;;;;;;5108642;28;20052;-69
2021/06/06 07:27:35;;;;;;;4.28;2.70;;;;;;;;;;5110283;28;20069;-69
2021/06/06 07:30:02;;;;;;;5.25;3.22;;;;;;;;;;5110246;28;20012;-69
2021/06/06 07:32:28;;;;;;;6.13;3.20;;;;;;;;;;5109929;28;20468;-69
2021/06/06 07:34:54;;;;;;;3.72;2.58;;;;;;;;;;5110524;28;20039;-69
2021/06/06 07:37:20;;;;;;;6.38;3.40;;;;;;;;;;5108738;28;20016;-69
2021/06/06 07:39:46;;;;;;;6.13;3.42;;;;;;;;;;5109611;28;20024;-69
2021/06/06 07:42:13;;;;;;;4.45;3.10;;;;;;;;;;5109979;28;20046;-69
2021/06/06 07:44:40;;;;;;;4.63;3.17;;;;;;;;;;5109781;28;20028;-69
2021/06/06 07:47:07;;;;;;;4.22;2.65;;;;;;;;;;5108306;28;20035;-69
2021/06/06 07:52:14;;;;;;;4.38;3.08;;;;;;;;;;5126460;27;20480;-69
2021/06/06 07:55:18;;;;;;;5.45;3.08;;;;;;;;;;5126445;27;20380;-70
2021/06/06 07:57:45;;;;;;;5.80;3.10;;;;;;;;;;5110488;28;20031;-70
2021/06/06 08:04:37;;;;;;;6.55;3.45;;;;;;;;;;5126219;27;20798;-69
2021/06/06 08:07:04;;;;;;;6.28;2.92;;;;;;;;;;5108533;28;20032;-69
2021/06/06 08:09:30;;;;;;;4.72;2.88;;;;;;;;;;5108935;28;20111;-69
2021/06/06 08:11:56;;;;;;;5.03;3.50;;;;;;;;;;5109214;28;20030;-69
2021/06/06 08:14:22;;;;;;;6.70;3.45;;;;;;;;;;5108591;28;20024;-69
2021/06/06 08:16:49;;;;;;;11.32;3.40;;;;;;;;;;5110208;28;20020;-69
2021/06/06 08:19:15;;;;;;;6.43;3.22;;;;;;;;;;5108819;28;20421;-70
2021/06/06 08:21:45;;;;;;;4.78;3.08;;;;;;;;;;5108391;28;20034;-69
2021/06/06 08:24:11;;;;;;;5.97;2.67;;;;;;;;;;5110038;28;20032;-70
2021/06/06 08:26:38;;;;;;;4.93;3.08;;;;;;;;;;5108837;28;20031;-70
2021/06/06 08:29:05;;;;;;;4.60;2.60;;;;;;;;;;5109662;28;20079;-70
2021/06/06 08:31:33;;;;;;;4.97;2.47;;;;;;;;;;5109990;28;20020;-69
2021/06/06 08:33:59;;;;;;;4.97;2.95;;;;;;;;;;5109922;28;20020;-69
2021/06/06 08:36:30;;;;;;;5.00;2.75;;;;;;;;;;5109219;28;20028;-69
2021/06/06 08:38:57;;;;;;;7.50;2.35;;;;;;;;;;5109577;28;20027;-70
2021/06/06 08:41:27;;;;;;;6.07;2.95;;;;;;;;;;5108525;28;20487;-69
2021/06/06 08:44:10;;;;;;;4.05;2.70;;;;;;;;;;5109162;28;20517;-69
2021/06/06 08:46:38;;;;;;;5.20;2.67;;;;;;;;;;5109702;28;20027;-70
2021/06/06 08:49:14;;;;;;;4.30;2.90;;;;;;;;;;5126248;27;20377;-69
2021/06/06 08:51:48;;;;;;;4.57;2.60;;;;;;;;;;5110470;28;20476;-69
2021/06/06 08:54:20;;;;;;;4.47;2.60;;;;;;;;;;5110340;28;20027;-69
2021/06/06 08:56:48;;;;;;;5.13;3.10;;;;;;;;;;5109754;28;20119;-70
2021/06/06 08:59:27;;;;;;;8.30;3.38;;;;;;;;;;5110196;28;20023;-69
2021/06/06 09:01:55;;;;;;;6.82;3.22;;;;;;;;;;5110022;28;20024;-69
2021/06/06 09:04:23;;;;;;;4.63;3.25;;;;;;;;;;5110280;28;20032;-70
2021/06/06 09:07:25;;;;;;;7.43;2.85;;;;;;;;;;5110123;28;20016;-70
2021/06/06 09:09:51;;;;;;;5.18;3.13;;;;;;;;;;5107862;28;20032;-70
2021/06/06 09:12:19;;;;;;;4.88;3.00;;;;;;;;;;5108931;28;20460;-70
2021/06/06 09:14:46;;;;;;;5.35;2.97;;;;;;;;;;5109846;28;20024;-70
2021/06/06 09:17:13;;;;;;;4.68;2.47;;;;;;;;;;5108623;28;20016;-70
2021/06/06 09:19:48;;;;;;;5.03;2.70;;;;;;;;;;5109480;28;20024;-70
2021/06/06 09:22:16;;;;;;;5.97;3.13;;;;;;;;;;5108531;28;20023;-70
2021/06/06 09:24:47;;;;;;;4.45;2.80;;;;;;;;;;5109357;28;20585;-70
2021/06/06 09:27:17;;;;;;;5.38;3.35;;;;;;;;;;5109989;28;20056;-70
2021/06/06 09:29:45;;;;;;;4.55;2.90;;;;;;;;;;5109759;28;20351;-70
2021/06/06 09:32:13;;;;;;;6.38;3.33;;;;;;;;;;5107922;28;20051;-70
2021/06/06 09:34:50;;;;;;;7.65;3.40;;;;;;;;;;5109535;28;20024;-70
2021/06/06 09:37:20;;;;;;;4.80;2.85;;;;;;;;;;5109557;28;20029;-70
2021/06/06 09:39:48;;;;;;;4.93;3.05;;;;;;;;;;5109112;28;20031;-71
2021/06/06 09:42:20;;;;;;;5.63;2.65;;;;;;;;;;5109334;28;20091;-70
2021/06/06 09:44:46;;;;;;;6.35;3.38;;;;;;;;;;5109298;28;20472;-70
2021/06/06 09:49:22;;;;;;;5.32;2.40;;;;;;;;;;5126377;27;20860;-71
2021/06/06 09:51:49;;;;;;;5.90;2.78;;;;;;;;;;5109086;28;20024;-69
2021/06/06 09:54:35;;;;;;;4.20;2.53;;;;;;;;;;5109906;28;20035;-69
2021/06/06 09:57:04;;;;;;;5.55;2.78;;;;;;;;;;5108811;28;20028;-69
2021/06/06 09:59:32;;;;;;;6.22;2.97;;;;;;;;;;5110187;28;20023;-69
2021/06/06 10:02:01;;;;;;;6.30;2.55;;;;;;;;;;5110208;28;20422;-70
2021/06/06 10:04:30;;;;;;;3.97;2.60;;;;;;;;;;5110142;28;20016;-69
2021/06/06 10:07:06;;;;;;;4.55;2.72;;;;;;;;;;5108533;28;20024;-70
2021/06/06 10:09:32;;;;;;;5.72;3.17;;;;;;;;;;5110087;28;20073;-70
2021/06/06 10:11:59;;;;;;;5.65;2.97;;;;;;;;;;5110117;28;20537;-70
2021/06/06 10:14:31;;;;;;;5.22;2.53;;;;;;;;;;5108450;28;20086;-69
2021/06/06 10:17:01;;;;;;;5.28;2.50;;;;;;;;;;5110013;28;20015;-69
2021/06/06 10:19:34;;;;;;;4.82;2.70;;;;;;;;;;5108739;28;20475;-69
2021/06/06 10:22:03;;;;;;;2.95;2.05;;;;;;;;;;5109487;28;20541;-69
2021/06/06 10:24:36;;;;;;;5.53;2.25;;;;;;;;;;5109737;28;20430;-70
2021/06/06 10:27:08;;;;;;;4.63;2.30;;;;;;;;;;5109865;28;20031;-69
2021/06/06 10:29:38;;;;;;;3.10;2.10;;;;;;;;;;5109390;28;20084;-70
2021/06/06 10:32:10;;;;;;;3.65;2.35;;;;;;;;;;5109572;28;20043;-70
2021/06/06 10:34:36;;;;;;;2.88;1.95;;;;;;;;;;5109631;28;20028;-69
2021/06/06 10:37:02;;;;;;;3.72;2.05;;;;;;;;;;5109178;28;20023;-70
2021/06/06 10:39:30;;;;;;;3.05;2.00;;;;;;;;;;5109466;28;20024;-70
2021/06/06 10:42:08;;;;;;;5.45;2.40;;;;;;;;;;5109128;28;20032;-70
2021/06/06 10:44:40;;;;;;;4.50;2.67;;;;;;;;;;5109418;28;20024;-70
2021/06/06 10:47:09;;;;;;;5.88;2.55;;;;;;;;;;5109316;28;20056;-69
2021/06/06 10:49:57;;;;;;;2.88;2.30;;;;;;;;;;5109081;28;20051;-70
2021/06/06 10:52:26;;;;;;;4.25;2.30;;;;;;;;;;5109338;28;20024;-68
2021/06/06 10:54:54;;;;;;;4.40;2.65;;;;;;;;;;5109158;28;20024;-69
2021/06/06 10:57:26;;;;;;;7.10;2.60;;;;;;;;;;5108673;28;20122;-70
2021/06/06 11:00:12;;;;;;;5.22;2.30;;;;;;;;;;5099638;28;20472;-70
2021/06/06 11:02:50;;;;;;;3.47;2.20;;;;;;;;;;5094884;28;20519;-68
2021/06/06 11:05:26;;;;;;;7.45;2.45;;;;;;;;;;5094520;28;20471;-70
2021/06/06 11:07:52;;;;;;;6.22;2.38;;;;;;;;;;5095371;28;20077;-69
2021/06/06 11:10:19;;;;;;;5.93;2.58;;;;;;;;;;5095134;28;20024;-69
2021/06/06 11:12:46;;;;;;;3.15;2.38;;;;;;;;;;5094354;28;20423;-69
2021/06/06 11:15:33;;;;;;;5.45;2.03;;;;;;;;;;5095858;28;20499;-69
2021/06/06 11:18:19;;;;;;;4.10;2.30;;;;;;;;;;5094686;28;20062;-69
2021/06/06 11:20:52;;;;;;;3.00;2.08;;;;;;;;;;5095114;28;20099;-70
2021/06/06 11:23:32;;;;;;;4.90;1.70;;;;;;;;;;5095150;28;20028;-69
2021/06/06 11:25:59;;;;;;;2.70;2.20;;;;;;;;;;5094781;28;20039;-69
2021/06/06 11:28:36;;;;;;;3.00;1.73;;;;;;;;;;5095111;28;20049;-69
2021/06/06 11:31:05;;;;;;;3.03;1.90;;;;;;;;;;5096103;28;20435;-69
2021/06/06 11:33:45;;;;;;;3.00;1.98;;;;;;;;;;5095033;28;20056;-69
2021/06/06 11:36:11;;;;;;;3.90;2.10;;;;;;;;;;5093609;28;20020;-70
2021/06/06 11:38:40;;;;;;;5.32;2.53;;;;;;;;;;5094337;28;20035;-70
2021/06/06 11:41:29;;;;;;;2.45;1.73;;;;;;;;;;5094653;28;20476;-70
2021/06/06 11:44:10;;;;;;;3.90;1.75;;;;;;;;;;5093390;28;20028;-70
2021/06/06 11:46:38;;;;;;;4.05;2.03;;;;;;;;;;5094379;28;20016;-69
2021/06/06 11:49:24;;;;;;;3.45;2.10;;;;;;;;;;5094488;28;20055;-69
2021/06/06 11:51:50;;;;;;;7.00;2.13;;;;;;;;;;5093249;28;20071;-69
2021/06/06 11:54:38;;;;;;;4.78;2.47;;;;;;;;;;5092682;28;20027;-69
2021/06/06 11:57:15;;;;;;;5.68;2.70;;;;;;;;;;5094415;28;20388;-71
2021/06/06 11:59:41;;;;;;;2.22;2.00;;;;;;;;;;5094039;28;20528;-70
2021/06/06 12:02:13;;;;;;;3.67;2.10;;;;;;;;;;5093030;28;20050;-70
2021/06/06 12:04:40;;;;;;;4.28;2.38;;;;;;;;;;5093011;28;20020;-70
2021/06/06 12:07:17;;;;;;;3.95;1.95;;;;;;;;;;5092550;28;20031;-70
2021/06/06 12:09:45;;;;;;;4.45;2.03;;;;;;;;;;5094396;28;20060;-70
2021/06/06 12:12:11;;;;;;;3.60;1.83;;;;;;;;;;5091823;28;20020;-70
2021/06/06 12:14:38;;;;;;;5.38;1.73;;;;;;;;;;5092330;28;20506;-70
2021/06/06 12:17:06;;;;;;;4.38;1.80;;;;;;;;;;5094332;28;20648;-70
2021/06/06 12:19:46;;;;;;;10.80;3.95;;;;;;;;;;5094041;28;20095;-70
2021/06/06 12:22:30;;;;;;;3.33;1.88;;;;;;;;;;5092206;28;20031;-70
2021/06/06 12:25:00;;;;;;;2.58;1.92;;;;;;;;;;5093915;28;20024;-70
2021/06/06 12:27:27;;;;;;;3.25;2.00;;;;;;;;;;5093651;28;20036;-70
2021/06/06 12:29:57;;;;;;;3.65;1.90;;;;;;;;;;5093944;28;20065;-71
2021/06/06 12:32:26;;;;;;;6.35;3.50;;;;;;;;;;5093799;28;20120;-71
2021/06/06 12:34:53;;;;;;;3.80;1.90;;;;;;;;;;5093337;28;20020;-71
2021/06/06 12:37:24;;;;;;;3.08;1.83;;;;;;;;;;5093574;28;20020;-70
2021/06/06 12:39:52;;;;;;;2.85;1.88;;;;;;;;;;5093603;28;20031;-70
2021/06/06 12:42:18;;;;;;;3.95;1.92;;;;;;;;;;5093140;28;20028;-70
2021/06/06 12:44:48;;;;;;;2.53;1.85;;;;;;;;;;5093459;28;20023;-70
2021/06/06 12:47:31;;;;;;;3.17;2.17;;;;;;;;;;5092110;28;20051;-70
2021/06/06 12:49:58;;;;;;;3.13;1.70;;;;;;;;;;5093244;28;20028;-70
2021/06/06 12:52:33;;;;;;;3.33;1.65;;;;;;;;;;5093357;28;20034;-70
2021/06/06 12:55:13;;;;;;;3.60;1.83;;;;;;;;;;5093453;28;20024;-71
2021/06/06 12:57:41;;;;;;;3.28;1.75;;;;;;;;;;5093259;28;20111;-70
2021/06/06 13:00:27;;;;;;;4.43;2.10;;;;;;;;;;5093274;28;20013;-70
2021/06/06 13:02:53;;;;;;;4.38;1.88;;;;;;;;;;5091693;28;20311;-70
2021/06/06 13:05:31;;;;;;;2.88;1.67;;;;;;;;;;5091937;28;20107;-70
2021/06/06 13:07:58;;;;;;;4.30;1.77;;;;;;;;;;5093375;28;20032;-70
2021/06/06 13:10:27;;;;;;;3.38;1.70;;;;;;;;;;5092913;28;20031;-70
2021/06/06 13:12:53;;;;;;;4.53;2.50;;;;;;;;;;5091828;28;20464;-70
2021/06/06 13:15:40;;;;;;;2.72;2.00;;;;;;;;;;5093027;28;20557;-70
2021/06/06 13:18:17;;;;;;;7.55;2.33;;;;;;;;;;5091069;28;20016;-70
2021/06/06 13:20:51;;;;;;;2.90;2.13;;;;;;;;;;5092969;28;20184;-69
2021/06/06 13:23:31;;;;;;;3.50;2.03;;;;;;;;;;5092633;28;20013;-69
2021/06/06 13:25:59;;;;;;;2.75;1.92;;;;;;;;;;5091939;28;20050;-69
2021/06/06 13:28:28;;;;;;;3.03;2.17;;;;;;;;;;5092991;28;20396;-70
2021/06/06 13:30:56;;;;;;;2.85;1.90;;;;;;;;;;5092622;28;20095;-70
2021/06/06 13:33:23;;;;;;;3.97;2.10;;;;;;;;;;5093221;28;20031;-70
2021/06/06 13:35:51;;;;;;;8.10;2.33;;;;;;;;;;5093024;28;20073;-70
2021/06/06 13:38:17;;;;;;;10.23;3.05;;;;;;;;;;5092371;28;20020;-70
2021/06/06 13:40:45;;;;;;;9.82;2.67;;;;;;;;;;5092679;28;20103;-70
2021/06/06 13:43:12;;;;;;;6.47;2.40;;;;;;;;;;5092636;28;20024;-70
2021/06/06 13:45:39;;;;;;;6.88;2.83;;;;;;;;;;5091037;28;20023;-70
2021/06/06 13:48:07;;;;;;;7.60;2.85;;;;;;;;;;5092557;28;20052;-70
2021/06/06 13:50:39;;;;;;;4.90;2.72;;;;;;;;;;5091499;28;20024;-69
2021/06/06 13:53:07;;;;;;;8.60;2.63;;;;;;;;;;5091041;28;20028;-69
2021/06/06 13:55:33;;;;;;;6.07;2.45;;;;;;;;;;5092514;28;20020;-69
2021/06/06 13:58:00;;;;;;;6.53;2.17;;;;;;;;;;5091173;28;20080;-69
2021/06/06 14:00:27;;;;;;;6.78;2.55;;;;;;;;;;5090835;28;20020;-69
2021/06/06 14:02:56;;;;;;;4.38;2.63;;;;;;;;;;5092453;28;20020;-69
2021/06/06 14:05:23;;;;;;;4.13;1.75;;;;;;;;;;5092443;28;20016;-69
2021/06/06 14:07:49;;;;;;;4.28;2.20;;;;;;;;;;5092026;28;20476;-69
2021/06/06 14:10:17;;;;;;;3.15;2.08;;;;;;;;;;5092213;28;20049;-68
2021/06/06 14:12:44;;;;;;;3.85;1.70;;;;;;;;;;5092003;28;20024;-69
2021/06/06 14:15:12;;;;;;;3.22;1.85;;;;;;;;;;5092423;28;20043;-69
2021/06/06 14:17:39;;;;;;;2.00;1.45;;;;;;;;;;5091038;28;20480;-69
2021/06/06 14:20:07;;;;;;;5.50;1.83;;;;;;;;;;5091904;28;20107;-69
2021/06/06 14:22:33;;;;;;;1.75;1.30;;;;;;;;;;5090963;28;20024;-69
2021/06/06 14:24:59;;;;;;;2.85;1.52;;;;;;;;;;5091084;28;20024;-68
2021/06/06 14:27:26;;;;;;;3.72;1.65;;;;;;;;;;5091999;28;20488;-68
2021/06/06 14:29:52;;;;;;;2.10;1.30;;;;;;;;;;5092331;28;20469;-70
2021/06/06 14:32:18;;;;;;;2.63;1.40;;;;;;;;;;5092213;28;20028;-69
2021/06/06 14:34:45;;;;;;;1.80;1.17;;;;;;;;;;5092269;28;20488;-69
2021/06/06 14:37:11;;;;;;;3.30;1.25;;;;;;;;;;5096033;28;20028;-69
2021/06/06 14:39:37;;;;;;;5.90;1.70;;;;;;;;;;5094605;28;20031;-69
2021/06/06 14:42:05;;;;;;;3.33;1.10;;;;;;;;;;5094166;28;20020;-69
2021/06/06 14:44:31;;;;;;;3.53;1.23;;;;;;;;;;5095936;28;20020;-69
2021/06/06 14:46:58;;;;;;;1.80;1.10;;;;;;;;;;5096032;28;20021;-69
2021/06/06 14:49:24;;;;;;;3.47;1.30;;;;;;;;;;5094380;28;20484;-69
2021/06/06 14:51:50;;;;;;;4.68;1.33;;;;;;;;;;5095668;28;20027;-70
2021/06/06 14:54:19;;;;;;;1.95;1.10;;;;;;;;;;5095725;28;20024;-69
2021/06/06 14:56:45;;;;;;;1.80;1.00;;;;;;;;;;5095265;28;20048;-69
2021/06/06 14:59:12;;;;;;;1.58;1.10;;;;;;;;;;5095569;28;20428;-69
2021/06/06 15:01:39;;;;;;;2.40;1.10;;;;;;;;;;5095668;28;20020;-69
2021/06/06 15:04:05;;;;;;;3.85;1.35;;;;;;;;;;5094969;28;20020;-69
2021/06/06 15:06:33;;;;;;;2.53;1.00;;;;;;;;;;5095704;28;20103;-69
2021/06/06 15:08:59;;;;;;;4.85;1.40;;;;;;;;;;5095191;28;20090;-69
2021/06/06 15:11:25;;;;;;;3.50;1.02;;;;;;;;;;5094061;28;20051;-69
2021/06/06 15:13:52;;;;;;;4.10;1.50;;;;;;;;;;5094013;28;20054;-69
2021/06/06 15:16:20;;;;;;;2.15;1.23;;;;;;;;;;5095073;28;20032;-69
2021/06/06 15:18:46;;;;;;;2.67;1.50;;;;;;;;;;5095055;28;20020;-69
2021/06/06 15:21:18;;;;;;;1.88;1.27;;;;;;;;;;5095262;28;20024;-69
2021/06/06 15:23:48;;;;;;;3.67;1.40;;;;;;;;;;5093469;28;20139;-69
2021/06/06 15:27:53;;;;;;;2.28;1.40;;;;;;;;;;5126559;27;20381;-69
2021/06/06 15:30:19;;;;;;;5.28;1.60;;;;;;;;;;5108946;28;20032;-68
2021/06/06 15:32:45;;;;;;;3.97;1.60;;;;;;;;;;5108980;28;20495;-69
2021/06/06 15:35:13;;;;;;;7.32;1.73;;;;;;;;;;5110417;28;20020;-70
2021/06/06 15:37:48;;;;;;;6.85;1.88;;;;;;;;;;5109987;28;20056;-70
2021/06/06 15:40:18;;;;;;;3.55;1.98;;;;;;;;;;5109077;28;20023;-71
2021/06/06 15:44:31;;;;;;;5.82;1.88;;;;;;;;;;5125914;27;20384;-69
2021/06/06 15:49:01;;;;;;;4.05;1.83;;;;;;;;;;5129936;27;20130;-69
2021/06/06 15:51:38;;;;;;;7.85;2.20;;;;;;;;;;5110104;28;20028;-71
2021/06/06 15:54:06;;;;;;;4.18;2.45;;;;;;;;;;5109065;28;20027;-70
2021/06/06 15:56:32;;;;;;;7.00;2.95;;;;;;;;;;5110285;28;20020;-70
2021/06/06 15:58:58;;;;;;;5.78;2.63;;;;;;;;;;5108693;28;20051;-70
2021/06/06 16:01:25;;;;;;;13.50;3.25;;;;;;;;;;5110280;28;20469;-70
2021/06/06 16:03:51;;;;;;;7.75;2.75;;;;;;;;;;5110120;28;20110;-69
2021/06/06 16:06:19;;;;;;;9.23;3.15;;;;;;;;;;5109686;28;20065;-69
2021/06/06 16:08:45;;;;;;;6.43;3.03;;;;;;;;;;5110160;28;20028;-70
2021/06/06 16:11:13;;;;;;;6.25;2.92;;;;;;;;;;5108844;28;20424;-69
2021/06/06 16:13:39;;;;;;;5.22;3.03;;;;;;;;;;5109522;28;20384;-69
2021/06/06 16:16:05;;;;;;;5.72;3.20;;;;;;;;;;5109994;28;20442;-69
2021/06/06 16:19:36;;;;;;;6.72;3.13;;;;;;;;;;5121585;27;20846;-69
2021/06/06 16:22:02;;;;;;;7.90;3.10;;;;;;;;;;5090052;28;20380;-70
2021/06/06 16:26:39;;;;;;;5.00;3.40;;;;;;;;;;5122014;27;20397;-69
2021/06/06 16:29:06;;;;;;;5.28;3.03;;;;;;;;;;5090342;28;20031;-69
2021/06/06 16:31:32;;;;;;;4.57;2.67;;;;;;;;;;5090015;28;20020;-69
2021/06/06 16:33:58;;;;;;;5.57;2.95;;;;;;;;;;5088791;28;20395;-69
2021/06/06 16:38:50;;;;;;;7.03;3.15;;;;;;;;;;5119410;27;20385;-71
2021/06/06 16:41:16;;;;;;;6.32;3.42;;;;;;;;;;5088437;28;20037;-70
2021/06/06 16:46:03;;;;;;;5.82;3.17;;;;;;;;;;5122191;27;20397;-69
2021/06/06 16:48:29;;;;;;;4.38;2.80;;;;;;;;;;5088731;28;20032;-70
2021/06/06 16:50:55;;;;;;;4.50;2.45;;;;;;;;;;5090297;28;20099;-71
2021/06/06 16:53:24;;;;;;;3.90;2.25;;;;;;;;;;5090197;28;20029;-69
2021/06/06 16:55:53;;;;;;;3.45;2.10;;;;;;;;;;5089581;28;20016;-70
2021/06/06 16:58:21;;;;;;;4.20;2.30;;;;;;;;;;5089989;28;20028;-69
2021/06/06 17:00:48;;;;;;;7.78;2.70;;;;;;;;;;5090181;28;20103;-69
2021/06/06 17:07:47;;;;;;;6.47;3.25;;;;;;;;;;5121929;27;20881;-69
2021/06/06 17:10:13;;;;;;;4.72;2.60;;;;;;;;;;5088360;28;20374;-69
2021/06/06 17:12:40;;;;;;;3.95;2.25;;;;;;;;;;5090247;28;20016;-70